createdAt,value
2023-02-12T00:02:25.769Z,35.73
2023-02-12T00:04:52.454Z,30.93
2023-02-12T00:07:18.893Z,29.93
2023-02-12T00:09:45.367Z,30.30
2023-02-12T00:12:11.772Z,31.23
2023-02-12T00:14:38.299Z,28.20
2023-02-12T00:17:04.827Z,32.50
2023-02-12T00:19:31.542Z,32.27
2023-02-12T00:21:57.989Z,32.90
2023-02-12T00:24:24.367Z,33.07
2023-02-12T00:26:51.016Z,31.43
2023-02-12T00:29:17.412Z,32.17
2023-02-12T00:31:43.986Z,33.30
2023-02-12T00:34:11.409Z,33.00
2023-02-12T00:36:37.835Z,28.40
2023-02-12T00:39:04.799Z,30.97
2023-02-12T00:41:31.335Z,37.47
2023-02-12T00:43:58.161Z,35.50
2023-02-12T00:46:24.858Z,40.37
2023-02-12T00:48:51.575Z,35.80
2023-02-12T00:51:18.026Z,39.80
2023-02-12T00:53:44.436Z,38.50
2023-02-12T00:56:10.923Z,36.00
2023-02-12T00:58:37.488Z,44.80
2023-02-12T01:01:03.951Z,40.10
2023-02-12T01:03:30.590Z,36.63
2023-02-12T01:05:57.826Z,38.37
2023-02-12T01:08:24.870Z,34.07
2023-02-12T01:11:00.439Z,39.97
2023-02-12T01:13:27.670Z,38.50
2023-02-12T01:16:10.677Z,42.10
2023-02-12T01:18:37.954Z,36.67
2023-02-12T01:21:31.926Z,42.37
2023-02-12T01:23:58.810Z,41.27
2023-02-12T01:26:26.483Z,43.90
2023-02-12T01:28:59.445Z,38.93
2023-02-12T01:31:29.082Z,42.47
2023-02-12T01:33:59.322Z,35.10
2023-02-12T01:36:28.042Z,36.00
2023-02-12T01:38:55.199Z,36.37
2023-02-12T01:41:24.169Z,36.67
2023-02-12T01:44:07.149Z,36.83
2023-02-12T01:46:33.707Z,39.50
2023-02-12T01:49:01.724Z,36.53
2023-02-12T01:51:29.384Z,39.57
2023-02-12T01:54:01.771Z,37.97
2023-02-12T01:56:29.152Z,36.70
2023-02-12T01:58:57.692Z,36.53
2023-02-12T02:01:30.588Z,29.50
2023-02-12T02:04:04.156Z,31.17
2023-02-12T02:06:53.985Z,29.30
2023-02-12T02:09:20.503Z,31.43
2023-02-12T02:12:05.670Z,31.20
2023-02-12T02:14:35.491Z,34.10
2023-02-12T02:17:32.709Z,31.40
2023-02-12T02:20:17.613Z,31.40
2023-02-12T02:22:49.999Z,35.77
2023-02-12T02:25:47.086Z,31.30
2023-02-12T02:28:45.835Z,29.30
2023-02-12T02:31:21.840Z,34.17
2023-02-12T02:33:57.331Z,30.57
2023-02-12T02:36:58.080Z,38.07
2023-02-12T02:39:39.425Z,33.10
2023-02-12T02:42:23.707Z,33.60
2023-02-12T02:44:55.022Z,33.80
2023-02-12T02:47:29.430Z,31.03
2023-02-12T02:50:12.377Z,33.63
2023-02-12T02:52:52.499Z,29.20
2023-02-12T02:55:22.273Z,34.60
2023-02-12T02:57:56.014Z,36.77
2023-02-12T03:00:33.738Z,29.07
2023-02-12T03:03:07.837Z,30.00
2023-02-12T03:05:45.283Z,30.60
2023-02-12T03:08:24.013Z,34.07
2023-02-12T03:10:59.653Z,36.00
2023-02-12T03:13:48.904Z,30.70
2023-02-12T03:16:26.178Z,28.50
2023-02-12T03:18:59.851Z,30.83
2023-02-12T03:21:41.448Z,29.17
2023-02-12T03:24:23.847Z,27.20
2023-02-12T03:27:15.128Z,32.37
2023-02-12T03:29:41.711Z,31.10
2023-02-12T03:32:54.836Z,28.73
2023-02-12T03:35:26.400Z,29.27
2023-02-12T03:38:10.684Z,31.50
2023-02-12T03:40:56.102Z,26.90
2023-02-12T03:43:33.614Z,31.37
2023-02-12T03:46:03.186Z,28.80
2023-02-12T03:48:46.040Z,27.20
2023-02-12T03:51:34.981Z,28.13
2023-02-12T03:54:02.461Z,29.90
2023-02-12T03:56:37.681Z,29.07
2023-02-12T03:59:05.444Z,31.17
2023-02-12T04:01:34.792Z,32.23
2023-02-12T04:04:05.930Z,35.10
2023-02-12T04:06:32.727Z,37.50
2023-02-12T04:09:03.631Z,39.00
2023-02-12T04:11:47.562Z,33.30
2023-02-12T04:14:20.121Z,36.27
2023-02-12T04:17:08.937Z,32.03
2023-02-12T04:20:08.043Z,33.03
2023-02-12T04:22:46.864Z,35.13
2023-02-12T04:25:52.117Z,31.37
2023-02-12T04:28:53.621Z,32.60
2023-02-12T04:31:53.813Z,29.17
2023-02-12T04:34:32.211Z,28.80
2023-02-12T04:36:58.564Z,31.07
2023-02-12T04:39:31.374Z,32.73
2023-02-12T04:42:00.031Z,34.03
2023-02-12T04:44:30.814Z,35.03
2023-02-12T04:46:57.552Z,35.57
2023-02-12T04:49:24.981Z,33.33
2023-02-12T04:51:51.802Z,39.20
2023-02-12T04:54:20.194Z,35.17
2023-02-12T04:56:46.895Z,36.40
2023-02-12T04:59:13.902Z,36.87
2023-02-12T05:01:41.358Z,36.53
2023-02-12T05:04:10.442Z,39.00
2023-02-12T05:06:38.602Z,41.20
2023-02-12T05:09:06.688Z,39.73
2023-02-12T05:11:33.294Z,35.10
2023-02-12T05:13:59.967Z,37.93
2023-02-12T05:16:26.496Z,37.10
2023-02-12T05:18:52.962Z,34.80
2023-02-12T05:21:19.430Z,32.50
2023-02-12T05:23:45.831Z,35.77
2023-02-12T05:26:16.547Z,39.27
2023-02-12T05:28:43.099Z,34.20
2023-02-12T05:31:13.610Z,35.90
2023-02-12T05:33:43.767Z,34.10
2023-02-12T05:36:13.564Z,32.60
2023-02-12T05:38:40.592Z,34.47
2023-02-12T05:41:09.576Z,31.60
2023-02-12T05:43:36.353Z,31.53
2023-02-12T05:46:04.713Z,32.70
2023-02-12T05:48:31.820Z,31.93
2023-02-12T05:51:03.203Z,31.43
2023-02-12T05:53:30.285Z,29.60
2023-02-12T05:56:16.688Z,27.23
2023-02-12T05:58:46.500Z,31.40
2023-02-12T06:01:23.653Z,33.30
2023-02-12T06:03:50.083Z,33.63
2023-02-12T06:06:16.745Z,28.80
2023-02-12T06:08:43.286Z,28.93
2023-02-12T06:11:14.302Z,27.23
2023-02-12T06:13:41.459Z,32.03
2023-02-12T06:16:16.015Z,32.80
2023-02-12T06:18:42.516Z,29.70
2023-02-12T06:21:08.959Z,31.57
2023-02-12T06:23:35.391Z,32.03
2023-02-12T06:26:01.780Z,32.10
2023-02-12T06:28:28.361Z,34.97
2023-02-12T06:30:54.859Z,36.23
2023-02-12T06:33:21.423Z,34.37
2023-02-12T06:35:47.807Z,34.27
2023-02-12T06:38:14.527Z,39.23
2023-02-12T06:40:40.958Z,37.07
2023-02-12T06:43:07.723Z,35.60
2023-02-12T06:45:35.233Z,35.43
2023-02-12T06:48:01.794Z,35.50
2023-02-12T06:50:28.815Z,38.60
2023-02-12T06:52:55.188Z,37.07
2023-02-12T06:55:21.797Z,36.33
2023-02-12T06:57:48.221Z,39.10
2023-02-12T07:00:14.884Z,35.67
2023-02-12T07:02:41.518Z,39.50
2023-02-12T07:05:08.231Z,40.27
2023-02-12T07:07:34.765Z,38.40
2023-02-12T07:10:01.273Z,41.93
2023-02-12T07:12:27.692Z,38.80
2023-02-12T07:14:54.172Z,36.37
2023-02-12T07:17:20.551Z,35.13
2023-02-12T07:19:46.970Z,34.53
2023-02-12T07:22:13.331Z,36.83
2023-02-12T07:24:39.760Z,40.10
2023-02-12T07:27:06.260Z,39.90
2023-02-12T07:29:32.810Z,36.87
2023-02-12T07:31:59.341Z,39.20
2023-02-12T07:34:25.844Z,33.83
2023-02-12T07:36:52.241Z,35.17
2023-02-12T07:39:18.640Z,35.37
2023-02-12T07:41:45.008Z,39.60
2023-02-12T07:44:13.020Z,39.73
2023-02-12T07:46:48.053Z,38.37
2023-02-12T07:49:17.967Z,40.33
2023-02-12T07:51:44.671Z,38.77
2023-02-12T07:54:12.328Z,41.93
2023-02-12T07:56:39.874Z,40.10
2023-02-12T07:59:10.373Z,41.43
2023-02-12T08:01:39.384Z,39.03
2023-02-12T08:04:11.350Z,41.80
2023-02-12T08:06:40.228Z,40.37
2023-02-12T08:09:09.818Z,43.20
2023-02-12T08:11:37.460Z,41.47
2023-02-12T08:14:04.703Z,34.83
2023-02-12T08:16:35.433Z,36.97
2023-02-12T08:19:15.845Z,38.77
2023-02-12T08:21:44.143Z,40.07
2023-02-12T08:24:11.526Z,42.43
2023-02-12T08:26:39.271Z,43.20
2023-02-12T08:29:09.288Z,44.00
2023-02-12T08:31:38.643Z,43.50
2023-02-12T08:34:05.802Z,45.33
2023-02-12T08:36:38.753Z,45.70
2023-02-12T08:39:07.926Z,44.17
2023-02-12T08:41:35.502Z,52.63
2023-02-12T08:44:04.193Z,46.87
2023-02-12T08:46:33.609Z,47.63
2023-02-12T08:49:02.874Z,47.77
2023-02-12T08:51:33.155Z,51.57
2023-02-12T08:54:01.906Z,46.57
2023-02-12T08:56:30.012Z,46.93
2023-02-12T08:59:00.662Z,44.77
2023-02-12T09:01:29.539Z,44.47
2023-02-12T09:03:56.050Z,46.33
2023-02-12T09:06:24.653Z,45.90
2023-02-12T09:08:52.149Z,48.97
2023-02-12T09:11:32.735Z,50.27
2023-02-12T09:14:03.534Z,49.87
2023-02-12T09:16:32.259Z,47.50
2023-02-12T09:18:59.011Z,49.17
2023-02-12T09:21:25.744Z,49.63
2023-02-12T09:23:52.843Z,48.27
2023-02-12T09:26:22.329Z,48.23
2023-02-12T09:28:50.827Z,47.80
2023-02-12T09:31:22.958Z,43.60
2023-02-12T09:33:52.272Z,54.13
2023-02-12T09:36:21.161Z,49.20
2023-02-12T09:38:48.955Z,50.53
2023-02-12T09:41:42.633Z,51.40
2023-02-12T09:44:17.855Z,49.23
2023-02-12T09:47:03.531Z,49.17
2023-02-12T09:49:56.210Z,52.67
2023-02-12T09:52:27.678Z,52.73
2023-02-12T09:54:54.577Z,44.83
2023-02-12T09:57:29.389Z,49.43
2023-02-12T10:00:00.289Z,50.70
2023-02-12T10:02:26.918Z,48.90
2023-02-12T10:05:01.301Z,54.37
2023-02-12T10:07:53.409Z,51.57
2023-02-12T10:10:47.478Z,53.73
2023-02-12T10:13:46.688Z,53.63
2023-02-12T10:16:25.535Z,44.17
2023-02-12T10:19:02.339Z,55.53
2023-02-12T10:21:46.947Z,46.70
2023-02-12T10:24:19.157Z,53.83
2023-02-12T10:26:51.441Z,52.37
2023-02-12T10:29:25.067Z,50.60
2023-02-12T10:32:04.792Z,51.80
2023-02-12T10:34:36.928Z,46.70
2023-02-12T10:37:11.366Z,45.70
2023-02-12T10:40:07.258Z,52.30
2023-02-12T10:42:43.368Z,48.10
2023-02-12T10:45:19.978Z,53.53
2023-02-12T10:47:49.793Z,56.03
2023-02-12T10:50:36.410Z,53.37
2023-02-12T10:53:05.661Z,52.10
2023-02-12T10:55:34.952Z,56.50
2023-02-12T10:58:03.730Z,52.83
2023-02-12T11:00:34.664Z,56.47
2023-02-12T11:03:05.140Z,54.67
2023-02-12T11:05:35.848Z,50.53
2023-02-12T11:08:02.949Z,51.47
2023-02-12T11:10:41.802Z,51.33
2023-02-12T11:13:27.828Z,55.17
2023-02-12T11:15:55.300Z,53.33
2023-02-12T11:18:26.830Z,57.10
2023-02-12T11:20:58.539Z,56.43
2023-02-12T11:23:29.621Z,58.33
2023-02-12T11:26:19.413Z,52.20
2023-02-12T11:29:24.375Z,50.63
2023-02-12T11:32:08.332Z,55.07
2023-02-12T11:34:35.783Z,53.03
2023-02-12T11:37:03.085Z,52.30
2023-02-12T11:39:35.897Z,50.27
2023-02-12T11:42:15.316Z,54.17
2023-02-12T11:44:48.140Z,45.60
2023-02-12T11:47:22.185Z,61.73
2023-02-12T11:49:55.944Z,46.37
2023-02-12T11:52:27.285Z,51.30
2023-02-12T11:54:59.168Z,49.90
2023-02-12T11:58:02.818Z,53.93
2023-02-12T12:00:35.560Z,51.17
2023-02-12T12:03:17.521Z,53.87
2023-02-12T12:05:52.617Z,50.70
2023-02-12T12:08:28.771Z,48.50
2023-02-12T12:11:04.718Z,49.00
2023-02-12T12:13:38.597Z,53.77
2023-02-12T12:16:30.000Z,45.40
2023-02-12T12:19:20.822Z,43.60
2023-02-12T12:21:58.782Z,48.50
2023-02-12T12:24:52.205Z,44.60
2023-02-12T12:27:52.119Z,44.50
2023-02-12T12:30:41.993Z,43.20
2023-02-12T12:33:26.259Z,44.57
2023-02-12T12:36:19.120Z,46.20
2023-02-12T12:38:57.067Z,46.07
2023-02-12T12:41:51.440Z,49.97
2023-02-12T12:44:20.831Z,47.70
2023-02-12T12:47:10.072Z,46.40
2023-02-12T12:50:18.391Z,48.70
2023-02-12T12:53:12.165Z,44.67
2023-02-12T12:55:41.580Z,46.33
2023-02-12T12:58:14.014Z,40.77
2023-02-12T13:01:10.028Z,44.33
2023-02-12T13:04:05.553Z,39.80
2023-02-12T13:07:09.613Z,47.70
2023-02-12T13:10:13.542Z,36.60
2023-02-12T13:13:01.250Z,41.27
2023-02-12T13:15:41.127Z,35.77
2023-02-12T13:18:17.169Z,41.33
2023-02-12T13:21:11.618Z,44.40
2023-02-12T13:23:56.407Z,40.83
2023-02-12T13:26:33.164Z,45.03
2023-02-12T13:29:11.930Z,44.00
2023-02-12T13:31:47.765Z,42.77
2023-02-12T13:34:16.216Z,39.73
2023-02-12T13:36:43.718Z,43.50
2023-02-12T13:39:25.444Z,41.77
2023-02-12T13:42:07.460Z,39.90
2023-02-12T13:44:52.400Z,40.00
2023-02-12T13:47:51.270Z,38.43
2023-02-12T13:50:27.847Z,40.37
2023-02-12T13:53:14.333Z,37.60
2023-02-12T13:56:02.402Z,36.70
2023-02-12T13:58:34.845Z,32.90
2023-02-12T14:01:14.266Z,32.80
2023-02-12T14:03:40.840Z,28.17
2023-02-12T14:06:14.368Z,30.93
2023-02-12T14:08:46.882Z,27.37
2023-02-12T14:11:17.263Z,27.73
2023-02-12T14:13:54.968Z,29.07
2023-02-12T14:16:41.659Z,27.30
2023-02-12T14:19:52.535Z,31.13
2023-02-12T14:22:27.911Z,31.10
2023-02-12T14:24:56.402Z,29.40
2023-02-12T14:27:27.740Z,31.10
2023-02-12T14:30:09.906Z,31.37
2023-02-12T14:32:45.316Z,28.73
2023-02-12T14:35:26.823Z,30.00
2023-02-12T14:37:58.168Z,26.63
2023-02-12T14:40:48.998Z,28.30
2023-02-12T14:43:54.460Z,27.50
2023-02-12T14:46:24.152Z,27.57
2023-02-12T14:48:55.780Z,27.00
2023-02-12T14:51:34.031Z,26.23
2023-02-12T14:54:01.209Z,23.63
2023-02-12T14:56:27.949Z,22.40
2023-02-12T14:58:58.817Z,24.07
2023-02-12T15:01:36.321Z,20.17
2023-02-12T15:04:20.103Z,22.50
2023-02-12T15:06:59.032Z,21.57
2023-02-12T15:09:39.010Z,20.73
2023-02-12T15:12:07.595Z,20.60
2023-02-12T15:14:42.994Z,22.63
2023-02-12T15:17:20.738Z,23.90
2023-02-12T15:20:02.640Z,22.43
2023-02-12T15:22:41.938Z,24.77
2023-02-12T15:25:28.027Z,18.00
2023-02-12T15:27:58.516Z,17.73
2023-02-12T15:30:32.306Z,20.70
2023-02-12T15:33:03.061Z,25.27
2023-02-12T15:35:32.776Z,18.17
2023-02-12T15:38:01.190Z,16.73
2023-02-12T15:40:31.599Z,19.23
2023-02-12T15:43:00.226Z,22.47
2023-02-12T15:45:30.167Z,21.97
2023-02-12T15:48:02.330Z,19.30
2023-02-12T15:50:31.217Z,20.33
2023-02-12T15:52:57.959Z,19.47
2023-02-12T15:55:27.392Z,19.47
2023-02-12T15:57:57.254Z,17.20
2023-02-12T16:00:41.337Z,15.03
2023-02-12T16:03:22.340Z,17.80
2023-02-12T16:05:50.193Z,13.10
2023-02-12T16:08:19.259Z,13.90
2023-02-12T16:10:51.523Z,17.93
2023-02-12T16:13:21.064Z,19.17
2023-02-12T16:16:04.776Z,17.60
2023-02-12T16:18:31.961Z,20.97
2023-02-12T16:21:15.901Z,20.10
2023-02-12T16:23:44.475Z,20.43
2023-02-12T16:26:23.789Z,20.80
2023-02-12T16:28:54.143Z,14.60
2023-02-12T16:31:23.804Z,16.90
2023-02-12T16:33:53.391Z,15.87
2023-02-12T16:36:19.766Z,17.37
2023-02-12T16:38:48.067Z,16.93
2023-02-12T16:41:20.460Z,14.40
2023-02-12T16:43:49.203Z,18.10
2023-02-12T16:46:18.326Z,13.10
2023-02-12T16:48:49.305Z,14.40
2023-02-12T16:51:29.571Z,14.57
2023-02-12T16:54:01.094Z,14.97
2023-02-12T16:56:31.389Z,19.73
2023-02-12T16:58:59.854Z,25.00
2023-02-12T17:01:32.870Z,22.23
2023-02-12T17:04:01.276Z,22.00
2023-02-12T17:06:29.595Z,16.10
2023-02-12T17:08:57.218Z,17.03
2023-02-12T17:11:24.503Z,22.70
2023-02-12T17:13:53.757Z,19.87
2023-02-12T17:16:30.400Z,20.40
2023-02-12T17:18:57.664Z,17.90
2023-02-12T17:21:28.108Z,18.40
2023-02-12T17:23:54.621Z,18.40
2023-02-12T17:26:24.718Z,20.13
2023-02-12T17:28:51.109Z,18.03
2023-02-12T17:31:17.839Z,19.60
2023-02-12T17:33:44.457Z,17.13
2023-02-12T17:36:12.171Z,20.93
2023-02-12T17:38:38.683Z,17.97
2023-02-12T17:41:10.522Z,17.40
2023-02-12T17:43:36.949Z,14.83
2023-02-12T17:46:09.503Z,13.60
2023-02-12T17:48:35.881Z,12.70
2023-02-12T17:51:02.288Z,15.90
2023-02-12T17:53:28.753Z,15.40
2023-02-12T17:55:55.216Z,12.93
2023-02-12T17:58:21.634Z,19.50
2023-02-12T18:00:48.061Z,15.37
2023-02-12T18:03:14.508Z,12.70
2023-02-12T18:05:42.653Z,13.90
2023-02-12T18:08:10.222Z,13.43
2023-02-12T18:10:41.682Z,15.20
2023-02-12T18:13:08.425Z,14.73
2023-02-12T18:15:35.084Z,12.77
2023-02-12T18:18:01.596Z,13.30
2023-02-12T18:20:28.124Z,14.30
2023-02-12T18:22:54.611Z,13.80
2023-02-12T18:25:21.134Z,14.10
2023-02-12T18:27:47.547Z,19.13
2023-02-12T18:30:14.502Z,12.50
2023-02-12T18:32:41.108Z,11.70
2023-02-12T18:35:08.381Z,11.30
2023-02-12T18:37:34.918Z,13.30
2023-02-12T18:40:01.516Z,12.27
2023-02-12T18:42:32.626Z,11.30
2023-02-12T18:44:59.144Z,15.03
2023-02-12T18:47:25.667Z,11.33
2023-02-12T18:49:52.221Z,13.10
2023-02-12T18:52:18.664Z,12.53
2023-02-12T18:54:45.070Z,11.57
2023-02-12T18:57:11.506Z,11.10
2023-02-12T18:59:38.028Z,12.23
2023-02-12T19:02:05.236Z,10.90
2023-02-12T19:04:31.865Z,14.30
2023-02-12T19:06:58.360Z,13.00
2023-02-12T19:09:26.162Z,13.23
2023-02-12T19:11:55.134Z,11.00
2023-02-12T19:14:23.400Z,14.70
2023-02-12T19:16:50.732Z,13.83
2023-02-12T19:19:20.188Z,10.53
2023-02-12T19:21:47.056Z,11.37
2023-02-12T19:24:15.412Z,11.70
2023-02-12T19:26:44.215Z,13.03
2023-02-12T19:29:12.356Z,9.40
2023-02-12T19:31:44.182Z,10.00
2023-02-12T19:34:21.705Z,10.80
2023-02-12T19:36:49.572Z,9.03
2023-02-12T19:39:22.274Z,8.03
2023-02-12T19:41:49.807Z,7.87
2023-02-12T19:44:19.148Z,7.00
2023-02-12T19:46:46.778Z,7.50
2023-02-12T19:49:22.640Z,8.67
2023-02-12T19:51:50.235Z,9.33
2023-02-12T19:54:18.573Z,7.40
2023-02-12T19:56:45.938Z,7.67
2023-02-12T19:59:18.255Z,8.13
2023-02-12T20:01:46.135Z,7.00
2023-02-12T20:04:14.658Z,9.10
2023-02-12T20:06:42.328Z,8.23
2023-02-12T20:09:10.586Z,9.47
2023-02-12T20:11:38.490Z,9.67
2023-02-12T20:14:07.741Z,8.10
2023-02-12T20:16:38.131Z,7.97
2023-02-12T20:19:11.357Z,9.00
2023-02-12T20:21:38.892Z,7.67
2023-02-12T20:24:05.760Z,8.87
2023-02-12T20:26:33.372Z,7.17
2023-02-12T20:29:03.308Z,8.97
2023-02-12T20:31:33.850Z,7.73
2023-02-12T20:34:02.924Z,10.00
2023-02-12T20:36:35.157Z,10.40
2023-02-12T20:39:01.695Z,10.03
2023-02-12T20:41:28.774Z,9.17
2023-02-12T20:43:56.023Z,9.37
2023-02-12T20:46:24.075Z,9.87
2023-02-12T20:48:50.879Z,9.07
2023-02-12T20:51:20.213Z,9.73
2023-02-12T20:53:47.587Z,10.37
2023-02-12T20:56:16.716Z,9.77
2023-02-12T20:58:44.990Z,9.97
2023-02-12T21:01:15.445Z,11.30
2023-02-12T21:03:41.893Z,11.43
2023-02-12T21:06:08.593Z,10.53
2023-02-12T21:08:39.502Z,11.43
2023-02-12T21:11:15.365Z,11.77
2023-02-12T21:13:50.394Z,11.60
2023-02-12T21:16:31.712Z,12.97
2023-02-12T21:18:58.623Z,12.53
2023-02-12T21:21:28.762Z,15.00
2023-02-12T21:23:57.219Z,13.40
2023-02-12T21:26:25.561Z,13.43
2023-02-12T21:28:53.143Z,11.43
2023-02-12T21:31:28.920Z,10.47
2023-02-12T21:33:56.990Z,13.40
2023-02-12T21:36:26.098Z,13.10
2023-02-12T21:38:53.468Z,13.60
2023-02-12T21:41:26.128Z,15.50
2023-02-12T21:43:57.051Z,15.50
2023-02-12T21:46:24.370Z,16.97
2023-02-12T21:48:51.060Z,16.33
2023-02-12T21:51:21.657Z,18.07
2023-02-12T21:53:49.961Z,19.60
2023-02-12T21:56:17.101Z,20.57
2023-02-12T21:58:44.560Z,21.40
2023-02-12T22:01:16.209Z,19.67
2023-02-12T22:03:46.028Z,20.40
2023-02-12T22:06:14.372Z,18.63
2023-02-12T22:08:40.942Z,19.90
2023-02-12T22:11:10.221Z,22.43
2023-02-12T22:13:37.597Z,22.57
2023-02-12T22:16:09.407Z,21.23
2023-02-12T22:18:36.110Z,20.10
2023-02-12T22:21:04.718Z,21.80
2023-02-12T22:23:31.366Z,19.73
2023-02-12T22:26:11.947Z,24.00
2023-02-12T22:28:43.957Z,18.57
2023-02-12T22:31:13.284Z,21.60
2023-02-12T22:33:40.128Z,19.80
2023-02-12T22:36:09.239Z,22.70
2023-02-12T22:38:37.524Z,21.83
2023-02-12T22:41:04.733Z,22.43
2023-02-12T22:43:33.629Z,20.43
2023-02-12T22:46:00.484Z,20.00
2023-02-12T22:48:28.479Z,17.93
2023-02-12T22:50:56.855Z,20.87
2023-02-12T22:53:24.540Z,18.13
2023-02-12T22:55:51.174Z,19.97
2023-02-12T22:58:18.189Z,19.93
2023-02-12T23:00:44.727Z,21.27
2023-02-12T23:03:11.188Z,24.17
2023-02-12T23:05:38.835Z,26.50
2023-02-12T23:08:06.370Z,24.70
2023-02-12T23:10:33.247Z,24.17
2023-02-12T23:13:01.494Z,25.37
2023-02-12T23:15:27.912Z,21.80
2023-02-12T23:17:54.427Z,21.93
2023-02-12T23:20:20.882Z,24.40
2023-02-12T23:22:47.267Z,24.30
2023-02-12T23:25:13.824Z,26.47
2023-02-12T23:27:40.225Z,26.77
2023-02-12T23:30:07.331Z,24.50
2023-02-12T23:32:33.737Z,22.60
2023-02-12T23:35:00.155Z,17.43
2023-02-12T23:37:26.571Z,18.73
2023-02-12T23:39:53.021Z,18.10
2023-02-12T23:42:19.440Z,15.37
2023-02-12T23:44:45.846Z,17.50
2023-02-12T23:47:12.373Z,19.13
2023-02-12T23:49:38.838Z,16.47
2023-02-12T23:52:05.327Z,20.03
2023-02-12T23:54:31.855Z,15.97
2023-02-12T23:56:58.333Z,15.30
2023-02-12T23:59:25.344Z,16.23
